Date,TemperatureHighF,TemperatureAvgF,TemperatureLowF,DewpointHighF,DewpointAvgF,DewpointLowF,HumidityHigh,HumidityAvg,HumidityLow,PressureMaxIn,PressureMinIn,WindSpeedMaxMPH,WindSpeedAvgMPH,GustSpeedMaxMPH,PrecipitationSumIn
2013-1-1,39.7,24.1,14.4,11.5,-8.7,-23.2,50,26,10,30.06,29.89,0,0,0,0.01
2013-1-2,45.7,24.7,9.9,-6.8,-12.0,-22.0,37,22,10,30.04,29.92,6,1,9,0.12
2013-1-3,48.2,31.4,19.4,2.7,-5.6,-14.7,41,22,10,30.18,30.00,8,2,13,0.05
2013-1-4,49.3,31.9,18.5,2.0,-6.9,-16.9,40,21,10,30.19,30.06,10,2,16,0.00
2013-1-5,44.1,36.0,27.0,12.2,0.9,-11.9,32,23,10,30.06,29.88,12,2,20,0.00
2013-1-6,46.2,32.2,21.4,7.9,-5.6,-18.7,33,20,10,30.14,29.89,9,2,16,0.00
2013-1-7,56.7,36.4,19.8,1.7,-5.5,-17.2,39,20,10,30.13,29.89,9,2,16,0.00
2013-1-8,60.4,45.3,28.2,3.5,-3.9,-17.2,27,13,10,29.95,29.81,11,3,16,0.00
2013-1-9,70.7,48.7,34.3,25.0,8.1,-9.7,49,23,10,30.20,29.95,3,1,7,0.00
2013-1-10,50.2,45.2,39.7,37.0,21.8,-9.8,66,45,10,30.16,29.55,16,1,22,0.26
2013-1-11,68.0,56.4,46.9,40.0,24.6,5.9,72,37,10,29.61,29.47,17,6,24,0.00
2013-1-12,58.6,42.1,28.2,25.5,6.6,-14.8,50,27,10,29.81,29.53,10,2,14,0.09
2013-1-13,29.1,22.8,15.3,10.9,-4.5,-22.3,48,31,10,30.15,29.73,0,0,0,0.00
2013-1-14,39.9,21.3,12.4,-4.9,-10.3,-22.1,41,27,10,30.26,30.15,0,0,0,0.00
2013-1-15,35.6,22.1,11.1,-3.3,-10.5,-20.6,40,25,10,30.18,29.94,0,0,0,0.00
2013-1-16,48.0,29.7,14.9,0.3,-7.4,-18.3,38,23,10,29.95,29.81,11,1,15,0.05
2013-1-17,52.7,34.5,24.3,11.7,-1.1,-16.2,43,25,10,30.24,29.91,7,1,11,0.00
2013-1-18,62.4,43.4,24.8,5.4,-2.3,-14.1,39,16,10,30.25,29.88,17,5,27,0.00
2013-1-19,66.2,52.7,43.3,7.8,-2.3,-9.7,10,10,10,29.96,29.73,16,5,22,0.00
2013-1-20,47.7,34.8,24.8,-2.4,-15.8,-23.9,16,10,10,30.11,29.96,8,2,14,0.00
2013-1-21,30.6,21.2,16.7,-15.7,-24.4,-30.0,21,12,10,30.17,30.10,10,3,18,0.00
2013-1-22,33.1,21.0,15.8,-17.6,-26.9,-31.0,10,10,10,30.22,30.08,6,1,8,0.00
2013-1-23,55.4,31.7,15.1,-0.6,-15.8,-30.3,21,12,10,30.15,29.92,7,1,12,0.00
2013-1-24,29.7,24.0,14.0,-20.1,-24.3,-32.1,13,10,10,30.32,29.96,8,2,12,0.00
2013-1-25,49.5,36.0,28.6,-4.9,-15.3,-21.0,10,10,10,30.02,29.88,10,2,15,0.00
2013-1-26,57.6,36.9,26.4,1.2,-8.6,-18.7,29,15,10,30.13,29.98,5,1,9,0.00
2013-1-27,58.6,45.6,33.8,35.0,18.4,-17.1,48,36,10,29.99,29.64,12,5,21,0.09
2013-1-28,79.5,67.2,57.0,41.9,32.7,16.9,53,31,10,29.69,29.55,17,6,30,0.00
2013-1-29,70.7,61.6,52.0,45.0,40.9,28.4,72,49,28,29.55,29.21,17,5,27,1.51
2013-1-30,62.4,34.9,26.4,52.9,10.4,-19.1,71,40,12,29.74,29.13,13,5,24,0.04
2013-1-31,36.3,23.7,10.6,-6.4,-20.0,-35.1,22,13,10,30.22,29.73,14,5,24,0.00
2013-2-1,34.2,20.8,7.9,-16.6,-25.4,-35.9,17,11,10,30.27,29.96,8,2,11,0.00
2013-2-2,45.3,35.9,29.3,9.3,-11.3,-20.4,30,13,10,29.95,29.79,8,2,14,0.00
2013-2-3,53.2,39.6,33.1,7.9,-8.6,-17.6,27,13,10,30.01,29.71,10,3,19,0.00
2013-2-4,62.4,44.3,27.7,5.2,-4.3,-17.2,33,14,10,29.76,29.56,11,2,18,0.00
2013-2-5,63.7,40.8,24.4,8.7,1.5,-11.1,41,23,10,29.90,29.69,10,2,15,0.00
2013-2-6,65.3,45.6,26.2,17.9,2.6,-8.1,44,20,10,29.96,29.76,13,4,17,0.00
2013-2-7,50.4,45.8,36.0,35.3,16.6,-7.9,56,36,10,29.91,29.64,9,2,14,0.21
2013-2-8,37.2,34.5,32.9,18.4,9.0,3.3,48,34,26,30.14,29.90,10,2,14,0.00
2013-2-9,47.5,38.6,31.6,18.0,2.7,-9.8,43,25,10,30.09,29.69,13,6,21,0.04
2013-2-10,66.9,50.9,38.3,33.9,15.1,-10.8,54,30,10,29.69,29.28,21,9,34,0.18
2013-2-11,56.5,42.5,31.8,5.4,-3.9,-12.9,32,15,10,29.92,29.65,13,4,24,0.00
2013-2-12,45.3,36.3,25.7,11.3,0.2,-11.6,47,25,10,29.93,29.73,5,0,8,0.00
2013-2-13,56.1,42.9,32.9,11.7,3.6,-8.3,37,22,10,29.73,29.61,11,4,17,0.00
2013-2-14,59.0,46.5,38.1,11.3,-0.3,-10.8,30,15,10,29.88,29.61,8,2,16,0.00
2013-2-15,45.9,36.1,26.1,4.8,-12.3,-23.0,28,12,10,30.09,29.88,8,3,17,0.00
2013-2-16,43.9,31.2,19.8,-9.1,-15.2,-23.2,25,13,10,30.08,29.92,10,2,14,0.00
2013-2-17,60.3,45.1,30.4,3.2,-8.0,-19.4,12,10,10,29.92,29.60,14,4,20,0.00
2013-2-18,58.3,47.3,30.2,34.8,6.0,-11.8,51,21,10,29.78,29.27,16,6,26,0.19
2013-2-19,39.4,30.1,23.5,-9.0,-17.5,-24.9,18,11,10,30.10,29.78,14,4,22,0.00
2013-2-20,30.7,24.4,17.6,-19.3,-24.1,-29.4,12,10,10,30.18,30.00,4,1,9,0.00
2013-2-21,30.0,25.8,22.6,15.0,0.3,-22.1,53,36,11,30.02,29.56,8,3,16,0.00
2013-2-22,38.3,30.3,21.6,19.5,1.1,-19.4,56,32,10,29.85,29.56,13,4,18,0.06
2013-2-23,46.0,28.1,15.3,-0.5,-8.8,-20.8,41,22,10,29.85,29.75,7,1,10,0.04
2013-2-24,58.3,36.4,16.2,5.7,-5.6,-17.5,42,19,10,29.86,29.73,4,1,8,0.00
2013-2-25,48.9,38.5,31.3,17.7,-1.0,-12.2,52,21,10,29.79,29.44,8,1,17,0.08
2013-2-26,35.2,33.9,33.6,19.9,19.0,17.0,56,54,50,29.53,29.31,7,3,13,0.64
2013-2-27,37.2,32.6,30.4,18.4,12.7,6.4,57,44,31,29.73,29.52,10,4,19,0.06
2013-2-28,36.5,32.5,30.0,8.0,4.2,-3.4,38,30,19,29.91,29.73,8,3,14,0.00
2013-3-1,35.1,31.1,27.3,8.1,2.7,-4.9,40,29,20,30.03,29.89,8,2,12,0.00
2013-3-2,40.8,28.9,19.6,0.9,-9.3,-21.3,35,20,10,30.09,29.99,7,2,12,0.00
2013-3-3,46.2,31.3,16.9,0.2,-9.7,-18.2,39,19,10,30.00,29.70,6,1,9,0.00
2013-3-4,62.6,45.2,35.4,5.2,-4.8,-13.9,22,12,10,29.70,29.46,10,2,14,0.00
2013-3-5,40.6,34.9,32.0,15.7,-4.3,-17.5,45,21,10,30.01,29.60,13,6,25,0.01
2013-3-6,45.5,33.1,24.3,-2.2,-9.2,-18.3,30,16,10,30.18,30.01,8,2,14,0.00
2013-3-7,59.4,38.4,21.0,5.0,-3.1,-13.3,41,20,10,30.14,29.99,7,1,12,0.00
2013-3-8,59.9,46.7,32.9,7.9,-0.3,-9.0,33,15,10,30.10,29.88,12,3,16,0.00
2013-3-9,74.1,56.5,42.4,29.1,12.3,-6.9,46,21,10,29.88,29.48,17,6,25,0.33
2013-3-10,62.8,51.5,35.6,41.9,32.1,16.9,61,48,17,29.59,29.39,14,4,22,0.72
2013-3-11,38.1,33.4,30.6,17.4,5.2,-8.5,47,32,14,29.78,29.56,12,4,21,0.01
2013-3-12,53.1,37.9,27.1,6.6,-3.8,-16.0,40,20,10,30.04,29.76,17,4,28,0.00
2013-3-13,50.9,36.6,27.7,-3.8,-12.6,-19.2,18,11,10,30.23,30.04,10,3,17,0.00
2013-3-14,74.5,48.0,28.2,16.1,1.4,-15.7,30,16,10,30.16,29.81,11,2,18,0.00
2013-3-15,84.2,59.5,35.8,21.8,14.9,2.5,45,22,10,29.84,29.44,14,3,21,0.00
2013-3-16,68.9,49.2,38.7,18.2,11.9,4.3,39,24,10,29.83,29.44,8,2,14,0.00
2013-3-17,39.2,36.1,33.6,19.3,15.7,6.6,51,43,26,29.84,29.54,8,2,12,0.32
2013-3-18,57.0,42.8,35.4,24.4,9.9,-13.3,60,33,10,29.82,29.49,11,3,21,0.02
2013-3-19,51.4,39.6,32.2,13.6,-9.2,-18.2,41,13,10,30.00,29.82,8,2,12,0.00
2013-3-20,40.3,34.2,25.3,18.5,-7.9,-23.7,48,19,10,30.08,29.91,10,3,19,0.00
2013-3-21,41.7,30.4,20.1,8.6,-10.9,-25.2,37,18,10,29.91,29.71,8,2,14,0.00
2013-3-22,40.6,36.6,33.1,17.5,3.2,-13.4,43,25,13,29.78,29.72,8,2,11,0.00
2013-3-23,55.2,43.9,37.4,21.0,-0.7,-12.9,46,17,10,29.79,29.60,7,1,13,0.09
2013-3-24,39.6,33.4,30.0,20.5,16.3,9.8,56,49,35,29.74,29.43,11,2,18,0.04
2013-3-25,38.1,31.1,26.6,9.8,4.9,-4.5,42,33,17,30.03,29.72,10,3,17,0.02
2013-3-26,45.3,33.9,25.0,3.6,-5.1,-16.8,38,21,10,30.15,30.02,7,2,11,0.07
2013-3-27,52.5,37.9,22.3,10.1,-3.2,-11.6,45,21,10,30.14,30.00,6,1,8,0.00
2013-3-28,68.4,51.5,39.9,9.7,0.3,-10.9,23,12,10,30.06,29.93,11,2,15,0.00
2013-3-29,74.7,56.9,40.3,23.3,10.1,-2.6,43,18,10,29.99,29.91,8,1,11,0.00
2013-3-30,54.1,50.5,45.7,32.6,27.0,4.2,55,41,14,29.93,29.67,10,2,16,0.09
2013-3-31,71.6,56.9,45.5,37.1,17.7,-3.7,62,29,10,29.73,29.65,10,2,16,0.01
2013-4-1,57.6,45.5,36.5,11.9,-2.6,-15.0,27,14,10,30.03,29.73,7,2,11,0.00
2013-4-2,59.9,41.7,29.7,2.8,-8.4,-17.6,21,12,10,30.12,30.02,4,1,8,0.00
2013-4-3,60.1,44.8,32.5,3.4,-5.7,-15.8,28,12,10,30.16,30.00,8,1,14,0.00
2013-4-4,67.5,48.7,30.7,10.7,-0.0,-13.3,33,14,10,30.00,29.82,6,1,10,0.00
2013-4-5,77.0,55.4,35.1,16.3,7.0,-4.5,35,16,10,29.96,29.74,8,2,13,0.00
2013-4-6,78.6,65.4,55.0,17.3,7.5,-0.5,10,10,10,29.73,29.47,19,6,28,0.00
2013-4-7,84.2,66.6,48.7,40.7,21.7,7.2,45,22,10,29.67,29.42,21,2,33,0.11
2013-4-8,83.3,70.9,61.3,37.8,27.8,14.9,39,23,10,29.59,29.47,17,5,27,0.08
2013-4-9,81.5,71.9,67.1,37.9,32.6,19.3,31,24,11,29.63,29.51,14,5,21,0.00
2013-4-10,73.2,59.8,46.0,43.7,39.9,32.8,65,49,23,29.62,29.36,21,2,32,1.29
2013-4-11,46.4,41.6,37.9,33.4,14.8,-5.2,61,36,13,29.56,29.49,11,5,20,0.00
2013-4-12,48.7,40.2,34.7,12.6,-0.1,-10.0,37,19,10,29.80,29.52,11,3,19,0.00
2013-4-13,67.8,50.0,31.1,20.0,6.5,-7.0,48,21,10,29.87,29.60,8,1,11,0.00
2013-4-14,84.2,68.2,51.3,42.4,15.4,-1.9,50,14,10,29.61,29.30,19,7,32,0.11
2013-4-15,62.4,55.1,48.0,45.4,36.7,31.0,58,50,33,29.77,29.49,11,1,17,1.11
2013-4-16,51.1,45.2,42.6,35.1,30.2,25.1,63,56,48,29.91,29.69,6,1,11,1.09
2013-4-17,87.8,66.1,47.8,47.8,34.5,21.3,59,37,10,29.88,29.39,14,4,23,0.00
2013-4-18,77.4,54.7,41.0,54.2,31.6,3.2,75,44,20,29.65,29.28,23,6,31,1.87
2013-4-19,54.7,44.4,36.9,5.1,-3.1,-12.2,23,14,10,29.86,29.62,16,5,26,0.14
2013-4-20,65.8,48.9,31.5,17.2,2.7,-10.0,42,17,10,30.05,29.86,5,1,8,0.00
2013-4-21,77.9,57.5,46.8,17.0,1.3,-6.9,11,10,10,30.12,29.93,14,4,20,0.00
2013-4-22,76.3,61.7,45.3,15.6,8.2,-3.3,27,13,10,30.00,29.70,14,3,21,0.00
2013-4-23,62.2,47.7,38.5,38.1,25.2,3.9,59,47,10,29.88,29.71,8,2,15,0.77
2013-4-24,55.9,44.4,34.9,24.5,7.7,-8.3,56,28,10,30.03,29.85,8,2,14,0.01
2013-4-25,70.0,54.4,37.0,12.2,5.2,-4.8,33,15,10,30.12,29.99,7,2,14,0.00
2013-4-26,60.8,54.0,49.1,34.5,19.9,-0.2,57,30,10,30.11,29.97,13,4,21,0.21
2013-4-27,53.1,50.9,48.6,41.8,37.7,33.2,69,61,54,30.03,29.75,5,1,8,0.43
2013-4-28,70.3,57.4,50.9,41.8,32.6,10.3,69,45,11,29.78,29.65,8,1,10,0.00
2013-4-29,89.4,70.1,47.3,41.3,28.1,17.4,60,28,10,29.67,29.48,12,4,21,0.00
2013-4-30,88.5,77.2,65.7,40.1,26.9,12.7,39,18,10,29.68,29.52,14,5,22,0.00
2013-5-1,88.2,75.0,59.0,34.4,23.2,10.4,38,16,10,29.83,29.69,13,3,17,0.00
2013-5-2,72.7,51.1,38.1,38.8,25.3,17.0,50,37,23,30.02,29.83,11,3,19,0.18
2013-5-3,43.2,38.0,35.1,24.6,22.5,20.3,56,53,48,29.96,29.64,8,2,13,0.69
2013-5-4,56.7,44.4,35.8,26.0,14.8,-3.7,56,36,10,29.80,29.61,6,1,10,0.01
2013-5-5,60.8,51.3,40.8,45.2,33.5,25.7,63,52,28,29.82,29.71,5,1,10,0.24
2013-5-6,78.4,64.5,55.2,45.0,32.6,11.5,66,37,10,29.81,29.73,6,2,11,0.01
2013-5-7,85.5,69.0,55.2,35.9,25.1,10.4,45,23,10,29.83,29.74,4,1,8,0.00
2013-5-8,81.7,65.3,51.6,42.0,30.8,13.2,51,31,10,29.82,29.73,12,1,19,0.00
2013-5-9,79.3,68.2,62.2,49.5,37.5,15.8,58,36,10,29.74,29.62,10,2,19,0.19
2013-5-10,66.9,61.5,54.3,45.7,38.2,30.8,57,43,28,29.81,29.63,7,2,11,0.01
2013-5-11,72.0,59.0,46.6,37.6,18.6,-3.6,60,28,10,29.98,29.80,10,2,20,0.00
2013-5-12,68.7,53.9,38.1,18.2,5.6,-6.3,40,16,10,30.05,29.93,8,1,14,0.00
2013-5-13,80.1,62.0,40.8,23.7,14.6,-0.9,45,19,10,29.99,29.76,9,2,14,0.00
2013-5-14,95.9,78.5,60.8,30.9,23.6,11.6,31,14,10,29.76,29.60,17,5,28,0.00
2013-5-15,92.5,78.9,65.8,40.4,22.8,11.1,30,13,10,29.72,29.61,13,3,19,0.00
2013-5-16,83.5,72.9,66.4,47.5,34.2,15.8,46,27,10,29.72,29.63,12,3,19,0.00
2013-5-17,82.2,71.8,62.1,46.9,36.3,19.9,44,29,11,29.73,29.66,6,1,11,0.00
2013-5-18,88.0,75.4,63.1,54.0,42.8,22.9,66,36,10,29.75,29.60,11,3,17,0.00
2013-5-19,91.8,80.5,70.7,57.3,43.2,21.8,59,32,10,29.66,29.41,18,5,27,0.02
2013-5-20,79.5,69.9,62.1,57.1,47.3,29.3,64,47,17,29.65,29.46,14,4,20,1.05
2013-5-21,77.5,69.7,63.7,51.1,42.1,22.8,60,40,15,29.57,29.45,11,3,17,0.01
2013-5-22,72.9,65.8,59.9,45.9,32.4,12.2,55,32,10,29.68,29.48,11,3,17,0.00
2013-5-23,71.1,62.8,55.0,37.5,31.7,22.5,51,32,16,30.00,29.68,7,1,11,0.00
2013-5-24,75.7,61.8,49.8,39.3,20.2,3.1,60,27,10,30.18,29.99,11,2,15,0.00
2013-5-25,78.8,65.8,55.8,41.3,22.7,1.9,38,20,10,30.04,29.84,14,2,20,0.00
2013-5-26,88.7,75.8,62.4,44.4,35.5,22.1,45,26,10,29.91,29.73,12,3,18,0.00
2013-5-27,77.2,70.2,64.2,54.8,50.1,37.7,68,50,28,29.83,29.53,13,3,17,0.85
2013-5-28,81.7,75.7,68.2,53.3,47.9,42.8,56,38,27,29.65,29.52,14,5,24,0.01
2013-5-29,88.0,77.8,68.4,50.4,38.3,22.3,52,28,10,29.69,29.54,16,5,27,0.00
2013-5-30,86.7,73.6,64.4,52.1,44.2,22.9,63,38,10,29.62,29.50,21,5,30,0.57
2013-5-31,84.2,68.3,62.2,59.5,54.2,43.2,82,62,33,29.64,29.47,13,2,27,2.65
2013-6-1,78.6,69.6,64.0,59.5,43.3,14.5,81,47,10,29.72,29.48,11,3,19,0.17
2013-6-2,68.4,62.6,56.1,40.2,34.9,26.5,48,36,21,29.83,29.72,7,2,11,0.00
2013-6-3,78.1,65.3,53.6,41.2,25.5,8.8,56,28,10,29.88,29.74,7,1,11,0.00
2013-6-4,81.7,67.5,57.2,41.6,32.1,16.3,44,29,10,29.84,29.72,9,2,14,0.00
2013-6-5,76.8,65.4,58.8,52.8,44.0,36.7,60,47,24,29.79,29.66,6,0,11,0.12
2013-6-6,80.1,69.5,59.4,57.2,34.6,13.8,77,36,10,29.71,29.65,7,1,12,0.00
2013-6-7,78.8,67.7,58.1,36.8,25.4,12.5,44,24,10,29.75,29.68,7,1,13,0.00
2013-6-8,82.2,69.5,54.5,44.0,28.1,13.8,57,27,10,29.75,29.64,9,2,15,0.00
2013-6-9,80.1,71.3,62.8,49.4,36.9,17.8,58,31,10,29.68,29.56,9,3,17,0.09
2013-6-10,84.9,74.0,65.1,48.2,34.5,19.3,48,27,10,29.69,29.57,8,2,14,0.00
2013-6-11,95.0,80.5,66.4,50.2,40.5,24.8,55,29,10,29.73,29.63,11,2,15,0.00
2013-6-12,96.6,86.1,75.0,52.0,39.3,27.5,41,22,10,29.69,29.55,15,5,26,0.00
2013-6-13,89.8,78.2,68.4,48.4,31.6,20.2,33,20,10,29.81,29.60,8,2,15,0.00
2013-6-14,91.2,77.1,64.4,50.9,34.9,20.2,54,26,10,29.85,29.73,11,1,14,0.00
2013-6-15,88.7,75.1,68.9,58.5,48.9,37.2,67,42,18,29.85,29.71,20,3,30,0.57
2013-6-16,87.3,76.5,68.7,64.9,56.3,44.7,80,53,26,29.79,29.68,8,1,11,0.77
2013-6-17,83.7,73.6,65.7,58.6,53.1,42.2,70,51,26,29.76,29.68,10,1,17,0.28
2013-6-18,92.3,75.4,62.1,57.6,42.0,19.9,70,39,10,29.78,29.72,5,1,11,0.07
2013-6-19,90.9,76.9,64.0,52.4,38.1,21.0,61,32,10,29.85,29.77,6,1,8,0.00
2013-6-20,91.2,80.6,69.4,51.2,38.8,23.9,50,27,10,29.87,29.78,14,3,17,0.00
2013-6-21,94.5,84.1,73.8,52.2,46.0,33.8,42,28,14,29.85,29.75,11,4,17,0.00
2013-6-22,95.0,83.5,76.3,55.6,47.2,28.6,48,30,10,29.85,29.72,11,4,16,0.00
2013-6-23,93.9,77.2,70.5,58.3,49.2,31.6,64,40,13,29.81,29.70,8,3,14,0.22
2013-6-24,94.5,82.2,69.6,58.9,45.8,27.3,63,33,10,29.82,29.66,11,3,17,0.00
2013-6-25,94.5,84.7,76.5,51.9,46.4,28.9,42,28,11,29.73,29.56,12,4,19,0.00
2013-6-26,98.8,87.0,77.9,50.9,39.4,24.1,37,21,10,29.64,29.54,12,4,18,0.00
2013-6-27,94.1,82.4,72.1,54.0,41.0,24.8,44,26,10,29.73,29.61,5,1,9,0.00
2013-6-28,91.8,79.4,70.5,59.0,46.5,24.1,65,39,10,29.71,29.59,9,2,16,0.21
2013-8-25,96.6,87.2,76.3,48.6,32.1,22.9,37,16,10,29.97,29.93,6,2,10,0.00
2013-8-26,96.8,83.7,73.0,58.6,44.2,25.9,57,31,10,29.99,29.85,7,2,11,0.00
2013-8-27,97.7,84.4,74.5,56.7,41.3,23.5,53,27,10,29.88,29.77,8,3,14,0.00
2013-8-28,100.2,84.4,71.2,50.7,38.9,24.8,45,24,10,29.84,29.77,6,1,10,0.00
2013-8-29,102.9,85.6,72.1,57.3,44.5,28.1,55,29,10,29.85,29.74,6,1,8,0.00
2013-8-30,102.0,89.0,78.8,57.0,43.0,28.1,47,24,10,29.76,29.62,8,2,12,0.00
2013-8-31,104.4,88.4,75.0,60.5,44.7,26.4,48,26,10,29.65,29.54,9,2,15,0.00
2013-9-1,97.9,82.4,75.2,64.4,48.3,23.9,64,36,10,29.67,29.56,7,1,16,0.00
2013-9-2,92.1,77.5,67.5,41.5,30.8,17.8,38,20,10,29.79,29.67,6,1,11,0.00
2013-9-3,94.1,74.0,59.7,43.4,28.8,14.4,50,23,10,29.88,29.76,5,1,8,0.00
2013-9-4,96.3,74.9,58.1,42.3,32.3,17.3,51,26,10,29.95,29.84,4,0,6,0.00
2013-9-5,96.1,77.0,62.6,47.5,33.2,18.4,51,26,10,29.98,29.90,4,0,6,0.00
2013-9-6,94.5,78.9,68.5,48.4,34.6,17.8,48,24,10,29.95,29.80,7,1,11,0.00
2013-9-7,99.9,81.7,65.5,48.1,35.7,22.2,50,24,10,29.83,29.69,8,2,13,0.00
2013-9-8,90.7,79.7,71.2,61.6,48.6,33.7,68,36,14,29.80,29.65,9,2,17,0.00
2013-9-9,100.2,86.0,75.7,54.8,40.7,23.3,46,25,10,29.75,29.68,11,2,16,0.00
2013-9-10,100.2,85.1,74.3,50.9,36.4,21.4,43,21,10,29.87,29.75,11,2,18,0.00
2013-9-11,102.4,83.8,69.3,47.9,36.6,23.4,46,22,10,29.92,29.81,8,1,13,0.00
2013-9-12,95.0,80.3,70.0,51.1,36.3,11.0,43,24,10,29.89,29.79,4,1,9,0.00
2013-9-13,87.6,70.3,59.5,30.0,17.4,5.4,32,15,10,29.93,29.83,4,1,9,0.00
2013-9-14,86.7,67.1,50.5,31.7,18.8,7.5,45,19,10,29.94,29.78,7,1,11,0.00
2013-9-15,90.3,72.0,62.4,52.9,27.2,8.9,55,23,10,29.89,29.75,7,2,13,0.00
2013-9-16,69.1,64.1,60.4,51.6,45.0,38.3,65,51,34,30.06,29.89,3,1,7,0.00
2013-9-17,71.1,66.5,61.7,60.1,48.0,38.4,73,52,35,30.00,29.81,4,1,8,0.01
2013-9-18,89.4,76.0,65.8,61.9,51.4,25.7,77,48,12,29.83,29.70,11,3,19,0.09
2013-9-19,94.1,81.8,72.3,51.5,41.6,26.0,43,27,10,29.75,29.61,11,5,20,0.02
2013-9-20,74.3,67.9,57.6,60.8,41.4,11.6,74,44,10,29.77,29.68,6,1,10,0.77
2013-9-21,81.7,62.7,52.7,37.0,25.0,6.4,54,30,10,29.81,29.70,6,1,10,0.00
2013-9-22,85.3,63.8,50.0,46.2,28.1,9.9,64,33,10,29.81,29.69,4,0,8,0.00
2013-9-23,85.5,66.6,52.7,35.7,24.6,10.4,49,25,10,29.78,29.65,8,1,12,0.00
2013-9-24,85.3,69.2,58.3,38.7,30.0,16.6,45,27,10,29.71,29.55,9,2,15,0.00
2013-9-25,87.8,69.7,60.1,51.7,40.9,21.1,65,39,10,29.67,29.59,3,0,7,0.00
2013-9-26,89.1,73.2,61.3,56.0,39.9,21.4,68,37,10,29.76,29.65,9,2,15,0.00
2013-9-27,88.7,75.1,63.5,52.4,38.1,20.3,62,32,10,29.84,29.73,11,3,17,0.00
2013-9-28,80.1,71.2,61.2,55.3,45.6,35.0,58,41,21,29.84,29.69,14,3,23,0.08
2013-9-29,84.9,64.8,54.5,48.4,32.2,9.9,67,37,10,29.89,29.76,4,0,7,0.00
2013-9-30,80.8,64.6,52.5,51.3,39.5,24.7,68,43,14,29.77,29.65,7,1,11,0.00
2013-10-1,90.0,74.8,65.1,55.5,43.0,21.5,62,38,10,29.78,29.69,7,2,12,0.00
2013-10-2,90.0,74.4,64.9,56.4,48.3,24.8,63,43,10,29.83,29.71,8,2,12,0.00
2013-10-3,88.2,77.2,69.1,54.3,46.6,27.0,57,37,12,29.73,29.61,10,4,17,0.00
2013-10-4,91.9,78.6,70.2,56.6,45.4,23.4,61,36,10,29.73,29.64,11,4,18,0.00
2013-10-5,77.4,62.1,46.4,53.9,43.5,31.1,64,51,38,29.77,29.66,13,3,20,0.59
2013-10-6,61.9,52.2,45.1,35.4,16.8,-1.2,56,28,10,29.74,29.65,11,4,18,0.00
2013-10-7,79.9,60.2,51.3,28.5,20.3,5.6,41,24,10,29.92,29.74,6,1,12,0.00
2013-10-8,82.2,62.6,47.5,35.6,23.5,9.2,54,28,10,29.96,29.86,8,2,12,0.00
2013-10-9,83.1,62.6,48.0,34.9,23.8,8.6,54,28,10,29.95,29.84,5,1,9,0.00
2013-10-10,88.9,65.5,49.8,41.9,28.1,13.7,56,30,10,29.92,29.75,8,2,13,0.00
2013-10-11,82.6,69.3,56.5,44.6,34.0,18.8,59,32,10,29.77,29.62,11,3,20,0.00
2013-10-12,84.4,67.3,52.2,45.9,28.7,4.8,55,28,10,30.01,29.68,8,1,12,0.06
2013-10-13,86.0,60.9,44.4,30.3,16.9,-0.6,48,23,10,30.19,30.01,4,0,8,0.00
2013-10-14,68.9,58.9,48.2,42.6,15.7,0.2,50,21,10,30.11,29.77,6,1,9,0.00
2013-10-15,66.9,61.2,52.3,52.2,36.8,18.3,67,42,22,29.81,29.67,7,2,11,0.06
2013-10-16,64.8,54.9,47.5,21.7,11.9,0.2,34,19,10,29.88,29.76,5,1,10,0.00
2013-10-17,70.3,56.3,47.3,34.0,19.4,2.3,54,29,10,29.79,29.70,10,2,15,0.02
2013-10-18,63.0,49.4,41.5,25.4,15.2,-3.4,52,29,10,29.88,29.73,6,2,12,0.04
2013-10-19,62.8,47.8,37.6,25.4,13.0,-2.9,53,30,10,29.85,29.73,10,3,14,0.05
2013-10-20,75.7,58.3,45.0,17.2,10.8,0.9,32,17,10,29.73,29.62,11,4,18,0.00
2013-10-21,60.3,51.0,40.1,21.0,7.9,-6.5,32,19,10,29.87,29.70,7,2,13,0.00
2013-10-22,68.4,49.7,37.4,17.8,9.7,-1.2,42,23,10,29.84,29.60,11,3,19,0.00
2013-10-23,55.2,44.1,34.3,14.8,3.7,-10.1,43,21,10,29.95,29.82,6,1,11,0.00
2013-10-24,57.4,43.9,32.7,16.4,1.7,-13.2,37,19,10,30.21,29.91,9,2,17,0.00
2013-10-25,63.0,43.5,27.5,11.9,0.9,-9.0,40,20,10,30.29,29.97,11,2,17,0.00
2013-10-26,70.3,53.2,40.8,11.1,-0.3,-11.2,20,11,10,29.97,29.83,10,2,14,0.00
2013-10-27,72.3,46.9,29.8,12.6,2.3,-10.0,38,18,10,29.93,29.76,5,1,8,0.00
2013-10-28,79.3,52.5,33.6,18.0,9.8,-0.4,40,20,10,29.97,29.81,8,0,13,0.00
2013-10-29,65.8,55.5,48.0,49.3,37.0,10.4,67,52,19,29.98,29.78,8,1,14,0.47
2013-10-30,73.9,66.1,59.4,60.4,50.9,44.0,79,59,39,29.80,29.55,11,3,17,0.06
2013-10-31,67.1,58.2,48.0,56.5,43.4,31.1,76,58,43,29.55,29.22,9,2,15,0.80
2013-11-1,68.0,54.3,45.5,34.2,17.2,-0.5,55,29,10,29.69,29.42,10,2,16,0.00
2013-11-2,60.4,48.4,38.5,23.8,12.8,-4.0,44,27,10,29.98,29.67,8,2,12,0.00
2013-11-3,70.7,48.3,33.1,24.0,8.8,-2.3,54,26,10,30.04,29.83,14,4,21,0.00
2013-11-4,69.8,57.1,51.3,28.9,9.6,-2.6,35,16,10,29.96,29.82,14,5,19,0.00
2013-11-5,64.0,56.6,53.4,44.1,40.8,28.9,60,56,36,29.97,29.71,11,4,17,0.33
2013-11-6,61.9,47.2,37.4,47.7,26.0,11.7,63,45,26,30.09,29.66,10,3,20,0.30
2013-11-7,63.3,45.1,32.4,20.8,8.3,-8.1,55,28,10,30.17,30.07,8,1,14,0.00
2013-11-8,66.4,48.8,30.4,18.7,6.2,-6.9,51,22,10,30.14,29.79,15,4,21,0.00
2013-11-9,75.2,56.1,42.8,15.5,7.4,-3.7,32,15,10,30.05,29.82,12,2,18,0.00
2013-11-10,70.0,50.8,38.5,16.9,3.2,-8.8,34,15,10,30.21,30.03,4,1,8,0.00
2013-11-11,69.3,48.3,31.3,25.1,7.8,-7.0,45,22,10,30.33,29.92,10,2,19,0.02
2013-11-12,49.8,31.8,23.0,-3.1,-14.8,-24.4,22,12,10,30.58,30.33,10,2,18,0.00
2013-11-13,55.8,35.9,19.2,-0.4,-9.8,-22.0,30,15,10,30.48,30.04,11,3,15,0.00
2013-11-14,66.2,46.1,29.5,7.0,-7.5,-20.4,10,10,10,30.04,29.80,11,3,20,0.00
2013-11-15,48.2,45.7,42.6,15.5,5.2,-8.8,32,19,10,29.81,29.78,6,2,11,0.07
2013-11-16,46.2,46.2,46.2,7.4,7.4,7.4,20,20,20,29.81,29.81,2,2,4,0.00
2013-11-17,46.2,46.2,46.2,7.4,7.4,7.4,20,20,20,29.81,29.81,2,2,4,0.00
2013-11-18,46.2,46.2,46.2,7.4,7.4,7.4,20,20,20,29.81,29.81,2,2,4,0.00
2013-11-19,46.2,46.2,46.2,7.4,7.4,7.4,20,20,20,29.81,29.81,2,2,4,0.00
2013-11-20,46.2,46.2,46.2,7.4,7.4,7.4,20,20,20,29.81,29.81,2,2,4,0.00
2013-11-21,46.2,46.2,46.2,7.4,7.4,7.4,20,20,20,29.81,29.81,2,2,4,0.00
2013-11-22,46.2,46.2,46.2,7.4,7.4,7.4,20,20,20,29.81,29.81,2,2,4,0.00
2013-11-23,46.2,46.2,46.2,7.4,7.4,7.4,20,20,20,29.81,29.81,2,2,4,0.00
2013-11-24,46.2,46.2,46.2,7.4,7.4,7.4,20,20,20,29.81,29.81,2,2,4,0.00
2013-11-25,46.2,46.2,46.2,7.4,7.4,7.4,20,20,20,29.81,29.81,2,2,4,0.00
2013-11-26,46.2,46.2,46.2,7.4,7.4,7.4,20,20,20,29.81,29.81,2,2,4,0.00
2013-11-27,46.2,46.2,46.2,7.4,7.4,7.4,20,20,20,29.81,29.81,2,2,4,0.00
2013-11-28,46.2,46.2,46.2,7.4,7.4,7.4,20,20,20,29.81,29.81,2,2,4,0.00
2013-11-29,46.2,46.2,46.2,7.4,7.4,7.4,20,20,20,29.81,29.81,2,2,4,0.00
2013-11-30,46.2,46.2,46.2,7.4,7.4,7.4,20,20,20,29.81,29.81,2,2,4,0.00
2013-12-1,46.2,46.2,46.2,7.4,7.4,7.4,20,20,20,29.81,29.81,2,2,4,0.00
2013-12-2,46.2,46.2,46.2,7.4,7.4,7.4,20,20,20,29.81,29.81,2,2,4,0.00
2013-12-3,46.2,46.2,46.2,7.4,7.4,7.4,20,20,20,29.81,29.81,2,2,4,0.00
2013-12-4,46.2,46.2,46.2,7.4,7.4,7.4,20,20,20,29.81,29.81,2,2,4,0.00
2013-12-5,46.2,46.2,46.2,7.4,7.4,7.4,20,20,20,29.81,29.81,2,2,4,0.00
2013-12-6,46.2,46.2,46.2,7.4,7.4,7.4,20,20,20,29.81,29.81,2,2,4,0.00
2013-12-7,46.2,46.2,46.2,7.4,7.4,7.4,20,20,20,29.81,29.81,2,2,4,0.00
2013-12-8,46.2,46.2,46.2,7.4,7.4,7.4,20,20,20,29.81,29.81,2,2,4,0.00
2013-12-9,46.2,46.2,46.2,7.4,7.4,7.4,20,20,20,29.81,29.81,2,2,4,0.00
2013-12-10,46.2,46.2,46.2,7.4,7.4,7.4,20,20,20,29.81,29.81,2,2,4,0.00
2013-12-11,46.2,46.2,46.2,7.4,7.4,7.4,20,20,20,29.81,29.81,2,2,4,0.00
2013-12-12,46.2,46.2,46.2,7.4,7.4,7.4,20,20,20,29.81,29.81,2,2,4,0.00
2013-12-13,46.2,46.2,46.2,7.4,7.4,7.4,20,20,20,29.81,29.81,2,2,4,0.00
2013-12-14,46.2,46.2,46.2,7.4,7.4,7.4,20,20,20,29.81,29.81,2,2,4,0.00
2013-12-15,46.2,46.2,46.2,7.4,7.4,7.4,20,20,20,29.81,29.81,2,2,4,0.00
2013-12-16,46.2,46.2,46.2,7.4,7.4,7.4,20,20,20,29.81,29.81,2,2,4,0.00
2013-12-17,46.2,46.2,46.2,7.4,7.4,7.4,20,20,20,29.81,29.81,2,2,4,0.00
2013-12-18,46.2,46.2,46.2,7.4,7.4,7.4,20,20,20,29.81,29.81,2,2,4,0.00
2013-12-19,46.2,46.2,46.2,7.4,7.4,7.4,20,20,20,29.81,29.81,2,2,4,0.00
2013-12-20,46.2,46.2,46.2,7.4,7.4,7.4,20,20,20,29.81,29.81,2,2,4,0.00
2013-12-21,46.2,46.2,46.2,7.4,7.4,7.4,20,20,20,29.81,29.81,2,2,4,0.00
2013-12-22,46.2,46.2,46.2,7.4,7.4,7.4,20,20,20,29.81,29.81,2,2,4,0.00
2013-12-23,46.2,46.2,46.2,7.4,7.4,7.4,20,20,20,29.81,29.81,2,2,4,0.00
2013-12-24,46.2,46.2,46.2,7.4,7.4,7.4,20,20,20,29.81,29.81,2,2,4,0.00
2013-12-25,46.2,46.2,46.2,7.4,7.4,7.4,20,20,20,29.81,29.81,2,2,4,0.00
2013-12-26,46.2,46.2,46.2,7.4,7.4,7.4,20,20,20,29.81,29.81,2,2,4,0.00
2013-12-27,46.2,46.2,46.2,7.4,7.4,7.4,20,20,20,29.81,29.81,2,2,4,0.00
2013-12-28,46.2,46.2,46.2,7.4,7.4,7.4,20,20,20,29.81,29.81,2,2,4,0.00
2013-12-29,46.2,46.2,46.2,7.4,7.4,7.4,20,20,20,29.81,29.81,2,2,4,0.00
2013-12-30,46.2,46.2,46.2,7.4,7.4,7.4,20,20,20,29.81,29.81,2,2,4,0.00
2013-12-31,46.2,46.2,46.2,7.4,7.4,7.4,20,20,20,29.81,29.81,2,2,4,0.00
2014-1-1,46.2,46.2,46.2,7.4,7.4,7.4,20,20,20,29.81,29.81,2,2,4,0.00
2014-1-2,46.2,46.2,46.2,7.4,7.4,7.4,20,20,20,29.81,29.81,2,2,4,0.00